createdAt,value
2022-09-24T00:02:05.674Z,8.35
2022-09-24T00:04:33.607Z,8.15
2022-09-24T00:07:01.465Z,9.00
2022-09-24T00:09:29.363Z,9.15
2022-09-24T00:11:57.323Z,9.63
2022-09-24T00:14:25.223Z,8.88
2022-09-24T00:16:54.456Z,9.43
2022-09-24T00:19:22.587Z,9.68
2022-09-24T00:21:50.655Z,8.43
2022-09-24T00:24:33.227Z,9.15
2022-09-24T00:27:02.907Z,8.95
2022-09-24T00:29:32.012Z,9.13
2022-09-24T00:32:01.321Z,8.52
2022-09-24T00:34:29.279Z,8.50
2022-09-24T00:36:57.205Z,8.68
2022-09-24T00:39:25.206Z,8.93
2022-09-24T00:41:54.342Z,9.02
2022-09-24T00:44:53.974Z,9.23
2022-09-24T00:47:35.892Z,9.40
2022-09-24T00:50:18.230Z,9.48
2022-09-24T00:52:51.085Z,8.67
2022-09-24T00:57:50.109Z,9.27
2022-09-24T01:00:19.112Z,8.50
2022-09-24T01:02:51.007Z,9.45
2022-09-24T01:05:19.533Z,8.57
2022-09-24T01:07:48.905Z,9.65
2022-09-24T01:10:38.138Z,9.32
2022-09-24T01:13:17.237Z,9.10
2022-09-24T01:15:51.640Z,8.70
2022-09-24T01:18:32.183Z,8.85
2022-09-24T01:21:27.418Z,8.52
2022-09-24T01:24:28.209Z,9.13
2022-09-24T01:27:04.174Z,9.25
2022-09-24T01:29:43.935Z,9.23
2022-09-24T01:32:20.072Z,9.00
2022-09-24T01:34:53.592Z,9.10
2022-09-24T01:37:24.763Z,8.88
2022-09-24T01:39:54.694Z,8.73
2022-09-24T01:42:24.999Z,9.25
2022-09-24T01:44:57.788Z,9.13
2022-09-24T01:47:34.336Z,9.40
2022-09-24T01:50:04.105Z,9.35
2022-09-24T01:52:37.050Z,8.70
2022-09-24T01:57:39.983Z,9.30
2022-09-24T02:00:13.039Z,8.90
2022-09-24T02:02:46.211Z,9.27
2022-09-24T02:05:21.068Z,9.65
2022-09-24T02:07:57.451Z,8.65
2022-09-24T02:10:33.444Z,8.93
2022-09-24T02:13:05.835Z,8.73
2022-09-24T02:15:38.841Z,9.00
2022-09-24T02:18:09.963Z,9.30
2022-09-24T02:20:40.222Z,9.35
2022-09-24T02:23:11.003Z,8.55
2022-09-24T02:25:43.708Z,8.82
2022-09-24T02:28:11.640Z,8.93
2022-09-24T02:30:45.372Z,8.40
2022-09-24T02:33:29.061Z,9.18
2022-09-24T02:35:57.415Z,9.15
2022-09-24T02:38:25.320Z,9.10
2022-09-24T02:40:54.107Z,9.38
2022-09-24T02:43:22.610Z,9.13
2022-09-24T02:45:55.451Z,9.32
2022-09-24T02:48:23.399Z,8.80
2022-09-24T02:50:51.274Z,9.40
2022-09-24T02:53:21.591Z,8.98
2022-09-24T02:55:49.468Z,9.68
2022-09-24T02:58:17.342Z,9.10
2022-09-24T03:00:45.265Z,9.65
2022-09-24T03:03:14.642Z,9.50
2022-09-24T03:05:42.581Z,9.10
2022-09-24T03:08:10.436Z,9.40
2022-09-24T03:10:39.120Z,8.95
2022-09-24T03:13:06.987Z,9.07
2022-09-24T03:15:34.927Z,9.00
2022-09-24T03:18:03.386Z,10.00
2022-09-24T03:20:32.709Z,9.38
2022-09-24T03:23:00.611Z,9.80
2022-09-24T03:25:28.490Z,9.55
2022-09-24T03:27:56.343Z,8.95
2022-09-24T03:30:53.406Z,9.73
2022-09-24T03:33:21.384Z,8.75
2022-09-24T03:35:56.736Z,9.57
2022-09-24T03:38:24.847Z,9.45
2022-09-24T03:40:53.086Z,9.70
2022-09-24T03:43:21.167Z,9.02
2022-09-24T03:45:49.334Z,9.43
2022-09-24T03:48:17.326Z,9.10
2022-09-24T03:50:46.023Z,9.07
2022-09-24T03:53:18.332Z,9.88
2022-09-24T03:55:48.250Z,9.45
2022-09-24T03:58:16.627Z,9.98
2022-09-24T04:00:44.446Z,10.25
2022-09-24T04:03:14.763Z,9.52
2022-09-24T04:05:43.615Z,9.57
2022-09-24T04:08:11.522Z,10.27
2022-09-24T04:10:40.708Z,10.10
2022-09-24T04:13:29.213Z,9.85
2022-09-24T04:16:10.715Z,10.70
2022-09-24T04:18:41.166Z,9.55
2022-09-24T04:21:11.360Z,10.20
2022-09-24T04:23:39.297Z,9.35
2022-09-24T04:26:23.746Z,9.80
2022-09-24T04:28:51.615Z,10.55
2022-09-24T04:31:19.889Z,10.10
2022-09-24T04:38:00.518Z,11.25
2022-09-24T04:40:28.764Z,10.57
2022-09-24T04:42:58.236Z,11.38
2022-09-24T04:45:26.797Z,11.60
2022-09-24T04:48:00.138Z,10.50
2022-09-24T04:50:33.199Z,9.57
2022-09-24T04:53:01.942Z,10.57
2022-09-24T04:55:29.840Z,10.05
2022-09-24T04:57:59.594Z,10.93
2022-09-24T05:00:27.501Z,11.10
2022-09-24T05:03:00.057Z,10.80
2022-09-24T05:05:28.417Z,11.50
2022-09-24T05:08:00.561Z,9.38
2022-09-24T05:10:30.206Z,9.77
2022-09-24T05:12:59.413Z,9.85
2022-09-24T05:15:27.743Z,10.02
2022-09-24T05:17:57.823Z,10.55
2022-09-24T05:20:26.055Z,11.18
2022-09-24T05:22:56.100Z,10.35
2022-09-24T05:25:24.217Z,10.02
2022-09-24T05:27:53.051Z,9.70
2022-09-24T05:30:26.644Z,9.27
2022-09-24T05:32:54.562Z,9.25
2022-09-24T05:35:23.951Z,9.40
2022-09-24T05:37:53.430Z,9.73
2022-09-24T05:40:39.763Z,9.70
2022-09-24T05:43:07.777Z,9.65
2022-09-24T05:45:37.023Z,10.63
2022-09-24T05:48:05.429Z,9.30
2022-09-24T05:50:34.857Z,9.75
2022-09-24T05:53:02.912Z,10.60
2022-09-24T05:55:32.523Z,10.02
2022-09-24T05:58:04.711Z,9.57
2022-09-24T06:00:32.617Z,9.75
2022-09-24T06:03:11.765Z,9.63
2022-09-24T06:05:46.055Z,10.20
2022-09-24T06:08:16.553Z,9.70
2022-09-24T06:10:45.465Z,9.15
2022-09-24T06:13:14.177Z,8.55
2022-09-24T06:15:42.448Z,9.75
2022-09-24T06:18:12.503Z,10.07
2022-09-24T06:20:40.700Z,9.95
2022-09-24T06:23:08.822Z,9.88
2022-09-24T06:25:50.481Z,10.18
2022-09-24T06:28:30.944Z,9.88
2022-09-24T06:31:01.284Z,9.60
2022-09-24T06:33:30.833Z,9.68
2022-09-24T06:36:03.018Z,9.57
2022-09-24T06:38:31.682Z,10.45
2022-09-24T06:41:01.478Z,9.80
2022-09-24T06:43:29.505Z,9.38
2022-09-24T06:45:57.859Z,9.40
2022-09-24T06:48:26.541Z,9.25
2022-09-24T06:50:56.304Z,9.23
2022-09-24T06:53:24.908Z,9.80
2022-09-24T06:55:54.317Z,9.70
2022-09-24T06:58:22.409Z,8.77
2022-09-24T07:00:54.966Z,9.32
2022-09-24T07:03:28.721Z,9.80
2022-09-24T07:06:02.144Z,9.20
2022-09-24T07:08:30.114Z,9.30
2022-09-24T07:10:58.102Z,8.20
2022-09-24T07:13:25.963Z,8.32
2022-09-24T07:15:54.111Z,8.73
2022-09-24T07:18:22.270Z,8.98
2022-09-24T07:20:53.958Z,8.23
2022-09-24T07:23:23.998Z,9.35
2022-09-24T07:25:56.131Z,9.70
2022-09-24T07:28:24.568Z,9.45
2022-09-24T07:30:58.421Z,12.75
2022-09-24T07:33:26.498Z,9.50
2022-09-24T07:35:54.439Z,10.30
2022-09-24T07:38:24.832Z,13.60
2022-09-24T07:40:54.225Z,14.40
2022-09-24T07:43:22.481Z,10.02
2022-09-24T07:45:50.392Z,9.98
2022-09-24T07:48:18.297Z,9.20
2022-09-24T07:50:46.267Z,9.15
2022-09-24T07:53:16.850Z,9.30
2022-09-24T07:55:49.374Z,9.52
2022-09-24T07:58:17.266Z,9.40
2022-09-24T08:00:45.195Z,9.18
2022-09-24T08:03:13.160Z,9.95
2022-09-24T08:05:45.212Z,9.30
2022-09-24T08:08:13.701Z,8.70
2022-09-24T08:10:43.885Z,10.50
2022-09-24T08:13:15.949Z,9.52
2022-09-24T08:15:43.824Z,9.87
2022-09-24T08:18:11.964Z,10.00
2022-09-24T08:20:39.970Z,8.63
2022-09-24T08:23:10.946Z,8.95
2022-09-24T08:25:38.948Z,8.88
2022-09-24T08:28:08.293Z,9.05
2022-09-24T08:30:37.613Z,9.98
2022-09-24T08:33:07.841Z,8.63
2022-09-24T08:35:36.439Z,8.35
2022-09-24T08:38:04.661Z,9.10
2022-09-24T08:40:39.387Z,8.48
2022-09-24T08:43:15.255Z,9.38
2022-09-24T08:46:07.416Z,10.27
2022-09-24T08:48:39.320Z,9.13
2022-09-24T08:51:13.125Z,9.13
2022-09-24T08:53:48.932Z,8.65
2022-09-24T08:56:21.229Z,8.90
2022-09-24T08:58:54.095Z,8.93
2022-09-24T09:04:05.001Z,9.10
2022-09-24T09:06:53.782Z,8.75
2022-09-24T09:09:25.730Z,9.38
2022-09-24T09:12:01.794Z,9.05
2022-09-24T09:14:41.976Z,9.23
2022-09-24T09:17:24.330Z,9.27
2022-09-24T09:19:57.156Z,9.10
2022-09-24T09:25:03.712Z,9.60
2022-09-24T09:27:32.812Z,8.88
2022-09-24T09:30:09.134Z,9.55
2022-09-24T09:32:52.053Z,9.80
2022-09-24T09:35:25.377Z,8.77
2022-09-24T09:38:04.766Z,7.90
2022-09-24T09:40:37.374Z,9.35
2022-09-24T09:43:10.839Z,9.15
2022-09-24T09:45:45.260Z,9.90
2022-09-24T09:48:16.513Z,9.07
2022-09-24T09:50:49.062Z,9.15
2022-09-24T09:53:21.989Z,8.65
2022-09-24T09:55:54.693Z,8.88
2022-09-24T09:58:25.728Z,8.20
2022-09-24T10:00:54.336Z,9.25
2022-09-24T10:03:26.827Z,9.27
2022-09-24T10:05:59.056Z,8.88
2022-09-24T10:08:29.445Z,8.77
2022-09-24T10:10:58.931Z,8.60
2022-09-24T10:13:28.028Z,8.15
2022-09-24T10:15:58.451Z,8.15
2022-09-24T10:18:33.995Z,8.88
2022-09-24T10:21:05.101Z,8.75
2022-09-24T10:23:37.444Z,8.80
2022-09-24T10:26:07.234Z,8.38
2022-09-24T10:28:55.219Z,8.65
2022-09-24T10:31:25.076Z,7.15
2022-09-24T10:34:00.144Z,7.45
2022-09-24T10:36:32.463Z,8.75
2022-09-24T10:39:10.045Z,7.90
2022-09-24T10:41:38.052Z,7.72
2022-09-24T10:44:11.521Z,7.30
2022-09-24T10:47:01.020Z,7.88
2022-09-24T10:49:41.729Z,6.43
2022-09-24T10:52:30.046Z,6.68
2022-09-24T10:55:08.810Z,8.18
2022-09-24T10:57:44.970Z,7.15
2022-09-24T11:00:20.052Z,6.88
2022-09-24T11:03:25.974Z,6.55
2022-09-24T11:06:00.755Z,6.53
2022-09-24T11:08:52.522Z,6.40
2022-09-24T11:11:33.310Z,6.97
2022-09-24T11:14:16.011Z,6.28
2022-09-24T11:17:16.369Z,6.35
2022-09-24T11:20:04.217Z,6.32
2022-09-24T11:22:42.347Z,6.63
2022-09-24T11:25:21.380Z,6.63
2022-09-24T11:27:57.122Z,7.03
2022-09-24T11:30:29.174Z,6.53
2022-09-24T11:33:10.567Z,6.73
2022-09-24T11:35:59.080Z,7.05
2022-09-24T11:38:40.930Z,7.05
2022-09-24T11:41:24.091Z,6.80
2022-09-24T11:44:30.602Z,5.80
2022-09-24T11:47:13.526Z,6.93
2022-09-24T11:49:54.087Z,6.30
2022-09-24T11:52:28.898Z,6.60
2022-09-24T11:55:05.515Z,6.85
2022-09-24T11:57:37.992Z,6.47
2022-09-24T12:00:13.786Z,6.68
2022-09-24T12:02:45.282Z,6.00
2022-09-24T12:05:20.881Z,9.60
2022-09-24T12:07:52.744Z,7.20
2022-09-24T12:10:31.012Z,6.60
2022-09-24T12:13:05.652Z,9.55
2022-09-24T12:15:48.214Z,7.32
2022-09-24T12:18:21.198Z,7.55
2022-09-24T12:20:54.173Z,7.80
2022-09-24T12:23:28.077Z,5.68
2022-09-24T12:25:59.551Z,7.47
2022-09-24T12:28:55.494Z,7.95
2022-09-24T12:31:50.511Z,7.65
2022-09-24T12:34:27.690Z,7.63
2022-09-24T12:37:01.888Z,8.77
2022-09-24T12:39:34.340Z,7.30
2022-09-24T12:42:08.184Z,7.53
2022-09-24T12:44:43.302Z,6.90
2022-09-24T12:47:21.145Z,7.15
2022-09-24T12:49:55.709Z,7.70
2022-09-24T12:52:28.233Z,7.25
2022-09-24T12:55:00.525Z,7.18
2022-09-24T12:57:33.744Z,7.43
2022-09-24T13:00:03.959Z,40.42
2022-09-24T13:02:45.068Z,8.55
2022-09-24T13:05:28.215Z,7.18
2022-09-24T13:08:01.366Z,9.15
2022-09-24T13:10:31.263Z,8.85
2022-09-24T13:13:01.614Z,7.70
2022-09-24T13:15:34.430Z,9.75
2022-09-24T13:18:06.062Z,7.78
2022-09-24T13:20:36.149Z,7.28
2022-09-24T13:23:16.477Z,6.07
2022-09-24T13:25:56.426Z,8.43
2022-09-24T13:28:37.401Z,8.52
2022-09-24T13:31:21.176Z,9.03
2022-09-24T13:33:54.883Z,8.90
2022-09-24T13:36:29.241Z,8.10
2022-09-24T13:39:03.278Z,6.95
2022-09-24T13:41:43.515Z,6.00
2022-09-24T13:44:20.299Z,6.50
2022-09-24T13:46:54.845Z,7.80
2022-09-24T13:49:24.661Z,7.65
2022-09-24T13:52:00.300Z,8.15
2022-09-24T13:54:34.130Z,7.38
2022-09-24T13:57:12.097Z,6.03
2022-09-24T13:59:41.417Z,7.35
2022-09-24T14:02:25.462Z,6.47
2022-09-24T14:04:58.563Z,6.35
2022-09-24T14:07:28.269Z,6.18
2022-09-24T14:10:04.683Z,6.20
2022-09-24T14:12:32.652Z,7.13
2022-09-24T14:15:04.468Z,6.70
2022-09-24T14:17:32.625Z,6.30
2022-09-24T14:20:00.641Z,27.77
2022-09-24T14:22:31.599Z,6.55
2022-09-24T14:25:04.909Z,7.18
2022-09-24T14:27:36.240Z,9.40
2022-09-24T14:30:07.485Z,6.80
2022-09-24T14:32:38.000Z,7.15
2022-09-24T14:35:08.899Z,6.72
2022-09-24T14:37:40.654Z,6.57
2022-09-24T14:40:15.088Z,6.85
2022-09-24T14:42:46.868Z,6.20
2022-09-24T14:45:22.103Z,7.00
2022-09-24T14:48:01.705Z,6.72
2022-09-24T14:50:39.045Z,7.35
2022-09-24T14:53:14.085Z,7.10
2022-09-24T14:55:46.302Z,7.05
2022-09-24T14:58:37.376Z,7.50
2022-09-24T15:01:14.849Z,6.78
2022-09-24T15:03:44.641Z,8.35
2022-09-24T15:06:21.138Z,8.10
2022-09-24T15:09:00.415Z,8.20
2022-09-24T15:11:31.425Z,8.13
2022-09-24T15:14:01.256Z,6.90
2022-09-24T15:16:33.888Z,7.57
2022-09-24T15:19:19.956Z,7.38
2022-09-24T15:21:51.629Z,8.18
2022-09-24T15:24:21.154Z,6.47
2022-09-24T15:26:59.968Z,6.88
2022-09-24T15:29:27.943Z,7.22
2022-09-24T15:31:58.914Z,7.15
2022-09-24T15:34:28.386Z,8.27
2022-09-24T15:37:00.144Z,8.48
2022-09-24T15:39:29.075Z,7.32
2022-09-24T15:41:57.038Z,8.90
2022-09-24T15:44:32.910Z,10.85
2022-09-24T15:47:03.066Z,8.55
2022-09-24T15:49:31.379Z,7.47
2022-09-24T15:52:03.457Z,8.57
2022-09-24T15:54:31.396Z,9.07
2022-09-24T15:57:00.720Z,8.95
2022-09-24T15:59:31.571Z,9.55
2022-09-24T16:02:04.782Z,8.40
2022-09-24T16:04:32.734Z,13.70
2022-09-24T16:07:00.857Z,13.15
2022-09-24T16:09:28.903Z,9.23
2022-09-24T16:11:57.579Z,8.73
2022-09-24T16:14:28.019Z,9.32
2022-09-24T16:16:58.350Z,10.25
2022-09-24T16:19:29.387Z,9.88
2022-09-24T16:21:59.405Z,10.70
2022-09-24T16:24:27.563Z,9.70
2022-09-24T16:26:55.743Z,10.40
2022-09-24T16:29:23.800Z,11.57
2022-09-24T16:31:51.748Z,10.82
2022-09-24T16:34:19.740Z,12.15
2022-09-24T16:36:49.390Z,13.73
2022-09-24T16:39:19.455Z,13.65
2022-09-24T16:41:49.395Z,11.57
2022-09-24T16:44:17.703Z,11.63
2022-09-24T16:46:45.776Z,11.15
2022-09-24T16:49:13.787Z,11.68
2022-09-24T16:51:41.679Z,12.13
2022-09-24T16:54:12.341Z,12.65
2022-09-24T16:56:40.256Z,14.07
2022-09-24T16:59:08.231Z,11.52
2022-09-24T17:01:36.231Z,11.55
2022-09-24T17:04:04.237Z,13.98
2022-09-24T17:06:34.081Z,12.40
2022-09-24T17:09:19.887Z,12.82
2022-09-24T17:11:49.703Z,14.38
2022-09-24T17:14:18.571Z,13.23
2022-09-24T17:16:46.792Z,12.43
2022-09-24T17:19:15.241Z,13.77
2022-09-24T17:21:46.009Z,16.15
2022-09-24T17:24:17.879Z,16.33
2022-09-24T17:26:50.928Z,14.07
2022-09-24T17:29:20.693Z,16.35
2022-09-24T17:31:48.784Z,13.38
2022-09-24T17:34:16.756Z,13.57
2022-09-24T17:36:44.712Z,14.15
2022-09-24T17:39:14.059Z,13.80
2022-09-24T17:41:42.277Z,13.57
2022-09-24T17:44:12.472Z,16.65
2022-09-24T17:46:41.054Z,15.77
2022-09-24T17:49:12.274Z,15.68
2022-09-24T17:51:40.279Z,16.08
2022-09-24T17:54:09.831Z,14.35
2022-09-24T17:56:39.313Z,21.52
2022-09-24T17:59:08.801Z,19.75
2022-09-24T18:01:42.847Z,18.60
2022-09-24T18:04:14.166Z,15.38
2022-09-24T18:06:43.651Z,16.75
2022-09-24T18:09:13.831Z,18.10
2022-09-24T18:11:43.541Z,16.63
2022-09-24T18:14:14.717Z,16.23
2022-09-24T18:16:44.887Z,23.58
2022-09-24T18:19:16.901Z,16.20
2022-09-24T18:21:45.980Z,18.67
2022-09-24T18:24:16.377Z,16.35
2022-09-24T18:26:51.350Z,18.17
2022-09-24T18:29:20.316Z,16.10
2022-09-24T18:31:51.379Z,14.68
2022-09-24T18:34:19.399Z,16.70
2022-09-24T18:36:47.304Z,17.45
2022-09-24T18:39:21.720Z,16.73
2022-09-24T18:41:52.101Z,15.80
2022-09-24T18:44:20.507Z,15.60
2022-09-24T18:46:51.033Z,15.73
2022-09-24T18:49:19.413Z,16.58
2022-09-24T18:51:47.575Z,13.73
2022-09-24T18:54:18.353Z,21.40
2022-09-24T18:56:46.959Z,18.45
2022-09-24T18:59:17.008Z,17.67
2022-09-24T19:01:46.116Z,16.05
2022-09-24T19:04:16.162Z,16.45
2022-09-24T19:06:45.904Z,14.48
2022-09-24T19:09:17.307Z,15.40
2022-09-24T19:11:46.282Z,15.40
2022-09-24T19:14:17.898Z,15.38
2022-09-24T19:16:47.059Z,15.23
2022-09-24T19:19:16.638Z,14.50
2022-09-24T19:21:45.090Z,19.38
2022-09-24T19:24:13.354Z,17.60
2022-09-24T19:26:43.730Z,20.27
2022-09-24T19:29:11.870Z,24.98
2022-09-24T19:31:41.701Z,22.30
2022-09-24T19:34:12.442Z,25.15
2022-09-24T19:36:44.089Z,23.45
2022-09-24T19:39:14.865Z,23.02
2022-09-24T19:41:42.958Z,22.50
2022-09-24T19:44:11.373Z,20.80
2022-09-24T19:46:39.836Z,26.13
2022-09-24T19:49:10.472Z,20.50
2022-09-24T19:51:38.864Z,21.50
2022-09-24T19:54:09.338Z,27.70
2022-09-24T19:56:38.377Z,17.23
2022-09-24T19:59:07.902Z,15.88
2022-09-24T20:01:36.045Z,20.70
2022-09-24T20:04:06.059Z,16.35
2022-09-24T20:06:37.870Z,15.48
2022-09-24T20:09:06.608Z,17.85
2022-09-24T20:11:36.322Z,24.17
2022-09-24T20:14:05.917Z,23.08
2022-09-24T20:16:34.166Z,19.65
2022-09-24T20:19:03.258Z,20.10
2022-09-24T20:21:34.806Z,18.42
2022-09-24T20:24:07.071Z,19.52
2022-09-24T20:26:55.657Z,20.48
2022-09-24T20:29:32.577Z,19.65
2022-09-24T20:32:00.571Z,19.45
2022-09-24T20:34:33.589Z,19.92
2022-09-24T20:37:02.470Z,17.98
2022-09-24T20:39:32.966Z,19.25
2022-09-24T20:42:05.962Z,19.73
2022-09-24T20:44:34.729Z,17.77
2022-09-24T20:47:02.910Z,18.17
2022-09-24T20:49:30.968Z,19.67
2022-09-24T20:51:58.975Z,18.58
2022-09-24T20:54:28.327Z,18.90
2022-09-24T20:56:57.009Z,19.90
2022-09-24T20:59:27.130Z,31.70
2022-09-24T21:01:55.542Z,19.15
2022-09-24T21:04:24.200Z,19.58
2022-09-24T21:06:55.137Z,17.80
2022-09-24T21:09:23.376Z,19.60
2022-09-24T21:11:53.118Z,18.40
2022-09-24T21:14:21.498Z,18.30
2022-09-24T21:16:50.742Z,19.08
2022-09-24T21:19:18.866Z,18.95
2022-09-24T21:21:46.950Z,17.40
2022-09-24T21:24:16.757Z,16.33
2022-09-24T21:26:45.868Z,20.13
2022-09-24T21:29:16.465Z,17.00
2022-09-24T21:31:46.164Z,16.70
2022-09-24T21:34:16.859Z,17.15
2022-09-24T21:39:17.486Z,16.70
2022-09-24T21:41:48.132Z,16.45
2022-09-24T21:44:19.665Z,16.70
2022-09-24T21:46:49.233Z,17.33
2022-09-24T21:49:19.392Z,16.98
2022-09-24T21:51:47.722Z,17.48
2022-09-24T21:54:17.827Z,17.27
2022-09-24T21:56:46.709Z,17.42
2022-09-24T21:59:32.426Z,15.80
2022-09-24T22:02:00.513Z,16.20
2022-09-24T22:04:33.119Z,15.30
2022-09-24T22:07:01.205Z,15.82
2022-09-24T22:09:32.856Z,15.65
2022-09-24T22:12:04.462Z,15.90
2022-09-24T22:14:35.073Z,15.30
2022-09-24T22:17:03.821Z,15.60
2022-09-24T22:19:33.303Z,15.80
2022-09-24T22:22:01.433Z,13.85
2022-09-24T22:24:31.822Z,14.65
2022-09-24T22:27:00.111Z,15.57
2022-09-24T22:29:28.016Z,14.75
2022-09-24T22:31:55.915Z,14.10
2022-09-24T22:34:41.588Z,14.75
2022-09-24T22:37:11.022Z,13.00
2022-09-24T22:39:38.919Z,14.20
2022-09-24T22:42:06.985Z,14.48
2022-09-24T22:44:34.940Z,14.10
2022-09-24T22:47:02.853Z,14.07
2022-09-24T22:49:31.742Z,13.38
2022-09-24T22:51:59.818Z,14.15
2022-09-24T22:54:30.397Z,13.63
2022-09-24T22:57:00.673Z,13.68
2022-09-24T22:59:28.575Z,12.50
2022-09-24T23:01:58.544Z,13.40
2022-09-24T23:04:26.524Z,11.95
2022-09-24T23:06:54.945Z,13.02
2022-09-24T23:09:22.888Z,11.00
2022-09-24T23:11:52.189Z,11.32
2022-09-24T23:14:20.198Z,11.23
2022-09-24T23:16:48.171Z,11.02
2022-09-24T23:19:17.860Z,10.57
2022-09-24T23:21:46.775Z,10.82
2022-09-24T23:24:17.239Z,11.50
2022-09-24T23:26:45.391Z,12.35
2022-09-24T23:29:17.317Z,11.85
2022-09-24T23:31:45.445Z,12.93
2022-09-24T23:34:14.447Z,13.50
2022-09-24T23:36:45.081Z,12.43
2022-09-24T23:39:14.453Z,13.77
2022-09-24T23:41:43.596Z,12.95
2022-09-24T23:44:11.533Z,13.65
2022-09-24T23:46:40.869Z,12.82
2022-09-24T23:49:08.785Z,12.90
2022-09-24T23:51:36.690Z,12.80
2022-09-24T23:54:06.350Z,12.75
2022-09-24T23:56:36.742Z,10.50
2022-09-24T23:59:06.963Z,11.48
